createdAt,value
2023-01-17T00:00:56.781Z,16.33
2023-01-17T00:03:53.794Z,15.20
2023-01-17T00:06:54.521Z,13.33
2023-01-17T00:09:57.029Z,14.67
2023-01-17T00:12:40.166Z,15.13
2023-01-17T00:15:27.835Z,13.80
2023-01-17T00:18:10.922Z,15.27
2023-01-17T00:21:11.243Z,14.73
2023-01-17T00:24:16.874Z,14.13
2023-01-17T00:27:13.827Z,16.53
2023-01-17T00:29:55.902Z,17.73
2023-01-17T00:32:41.789Z,21.23
2023-01-17T00:35:25.068Z,18.03
2023-01-17T00:38:09.746Z,16.63
2023-01-17T00:40:52.104Z,15.57
2023-01-17T00:43:52.933Z,16.53
2023-01-17T00:46:53.456Z,16.07
2023-01-17T00:49:55.673Z,15.77
2023-01-17T00:52:58.966Z,16.17
2023-01-17T00:55:59.019Z,15.77
2023-01-17T00:59:01.903Z,14.80
2023-01-17T01:02:02.654Z,15.97
2023-01-17T01:05:04.684Z,14.60
2023-01-17T01:08:05.257Z,15.50
2023-01-17T01:11:07.142Z,16.00
2023-01-17T01:14:07.524Z,15.97
2023-01-17T01:17:07.849Z,17.23
2023-01-17T01:20:10.783Z,15.60
2023-01-17T01:23:11.453Z,17.10
2023-01-17T01:26:12.379Z,15.73
2023-01-17T01:29:13.065Z,16.33
2023-01-17T01:32:13.535Z,16.47
2023-01-17T01:34:58.189Z,17.53
2023-01-17T01:37:41.277Z,17.00
2023-01-17T01:40:24.671Z,16.70
2023-01-17T01:43:07.762Z,16.03
2023-01-17T01:45:54.890Z,17.33
2023-01-17T01:48:45.551Z,16.40
2023-01-17T01:51:35.976Z,17.43
2023-01-17T01:54:22.418Z,17.57
2023-01-17T01:57:08.375Z,17.13
2023-01-17T01:59:57.433Z,17.67
2023-01-17T02:02:42.535Z,16.30
2023-01-17T02:05:28.474Z,16.23
2023-01-17T02:08:19.266Z,16.53
2023-01-17T02:11:03.382Z,16.10
2023-01-17T02:13:46.563Z,16.33
2023-01-17T02:16:50.072Z,16.77
2023-01-17T02:20:09.903Z,18.57
2023-01-17T02:23:23.667Z,18.57
2023-01-17T02:26:35.676Z,17.50
2023-01-17T02:29:54.696Z,16.93
2023-01-17T02:32:49.321Z,17.57
2023-01-17T02:35:39.991Z,16.17
2023-01-17T02:38:35.314Z,17.37
2023-01-17T02:41:23.251Z,18.33
2023-01-17T02:44:09.204Z,17.03
2023-01-17T02:46:54.930Z,15.77
2023-01-17T02:49:39.397Z,16.33
2023-01-17T02:52:38.741Z,14.87
2023-01-17T02:55:29.275Z,16.10
2023-01-17T02:58:33.939Z,18.70
2023-01-17T03:01:26.656Z,15.47
2023-01-17T03:04:18.724Z,16.90
2023-01-17T03:07:07.357Z,15.37
2023-01-17T03:09:54.633Z,16.33
2023-01-17T03:12:39.597Z,15.37
2023-01-17T03:15:22.733Z,16.07
2023-01-17T03:18:11.757Z,15.80
2023-01-17T03:20:54.856Z,15.13
2023-01-17T03:23:39.562Z,14.73
2023-01-17T03:26:24.711Z,15.03
2023-01-17T03:29:07.969Z,16.07
2023-01-17T03:31:51.093Z,15.30
2023-01-17T03:34:34.211Z,15.07
2023-01-17T03:37:17.376Z,14.30
2023-01-17T03:40:01.895Z,14.90
2023-01-17T03:42:45.256Z,15.17
2023-01-17T03:45:28.347Z,15.47
2023-01-17T03:48:11.892Z,14.67
2023-01-17T03:50:54.973Z,15.90
2023-01-17T03:53:38.095Z,16.53
2023-01-17T03:56:27.195Z,17.87
2023-01-17T03:59:13.089Z,18.57
2023-01-17T04:01:58.692Z,17.73
2023-01-17T04:04:41.900Z,19.00
2023-01-17T04:07:25.090Z,18.23
2023-01-17T04:10:08.880Z,17.53
2023-01-17T04:12:53.607Z,17.70
2023-01-17T04:15:36.864Z,17.73
2023-01-17T04:18:23.136Z,19.27
2023-01-17T04:21:07.834Z,16.87
2023-01-17T04:23:51.068Z,15.07
2023-01-17T04:26:34.173Z,16.17
2023-01-17T04:29:21.451Z,15.17
2023-01-17T04:32:06.949Z,17.03
2023-01-17T04:34:50.070Z,17.50
2023-01-17T04:37:33.066Z,15.93
2023-01-17T04:40:19.484Z,14.30
2023-01-17T04:43:02.528Z,15.40
2023-01-17T04:45:47.020Z,15.67
2023-01-17T04:48:31.502Z,15.73
2023-01-17T04:51:15.764Z,15.43
2023-01-17T04:53:58.848Z,14.97
2023-01-17T04:56:41.959Z,15.37
2023-01-17T04:59:25.050Z,14.70
2023-01-17T05:02:10.909Z,13.83
2023-01-17T05:04:54.063Z,14.77
2023-01-17T05:07:37.169Z,14.87
2023-01-17T05:10:22.973Z,13.47
2023-01-17T05:13:06.512Z,15.50
2023-01-17T05:15:49.703Z,14.07
2023-01-17T05:18:34.303Z,14.27
2023-01-17T05:21:17.358Z,12.30
2023-01-17T05:24:00.678Z,11.93
2023-01-17T05:26:46.255Z,13.37
2023-01-17T05:29:29.405Z,15.43
2023-01-17T05:32:16.796Z,14.10
2023-01-17T05:35:03.522Z,14.37
2023-01-17T05:37:49.224Z,14.90
2023-01-17T05:40:34.246Z,14.57
2023-01-17T05:43:17.484Z,14.30
2023-01-17T05:46:00.699Z,14.03
2023-01-17T05:48:43.821Z,15.13
2023-01-17T05:51:30.946Z,15.77
2023-01-17T05:54:14.110Z,17.60
2023-01-17T05:56:57.155Z,19.60
2023-01-17T05:59:42.555Z,25.40
2023-01-17T06:02:25.744Z,25.07
2023-01-17T06:05:09.461Z,20.03
2023-01-17T06:07:56.611Z,17.00
2023-01-17T06:10:39.902Z,15.27
2023-01-17T06:13:23.268Z,12.50
2023-01-17T06:16:06.658Z,12.57
2023-01-17T06:18:52.423Z,14.53
2023-01-17T06:21:44.164Z,15.33
2023-01-17T06:24:30.484Z,15.83
2023-01-17T06:27:13.639Z,16.10
2023-01-17T06:29:56.738Z,12.73
2023-01-17T06:32:42.243Z,11.63
2023-01-17T06:35:25.615Z,9.60
2023-01-17T06:38:10.074Z,10.27
2023-01-17T06:40:55.071Z,10.47
2023-01-17T06:43:40.861Z,9.97
2023-01-17T06:46:26.676Z,9.73
2023-01-17T06:49:09.784Z,9.97
2023-01-17T06:51:52.880Z,10.80
2023-01-17T06:54:36.008Z,10.60
2023-01-17T06:57:20.521Z,10.03
2023-01-17T07:00:04.549Z,10.67
2023-01-17T07:02:50.271Z,11.97
2023-01-17T07:05:33.353Z,11.77
2023-01-17T07:08:17.176Z,11.97
2023-01-17T07:11:01.605Z,12.53
2023-01-17T07:13:46.074Z,11.17
2023-01-17T07:16:29.789Z,12.27
2023-01-17T07:19:13.379Z,10.00
2023-01-17T07:21:56.745Z,9.60
2023-01-17T07:24:42.468Z,11.60
2023-01-17T07:27:27.220Z,9.77
2023-01-17T07:30:14.360Z,10.40
2023-01-17T07:32:57.817Z,10.23
2023-01-17T07:35:41.529Z,11.73
2023-01-17T07:38:24.805Z,11.23
2023-01-17T07:41:09.863Z,12.30
2023-01-17T07:43:56.373Z,10.47
2023-01-17T07:46:41.581Z,12.53
2023-01-17T07:49:26.700Z,12.03
2023-01-17T07:52:09.917Z,10.13
2023-01-17T07:54:54.150Z,10.77
2023-01-17T07:57:37.274Z,10.73
2023-01-17T08:00:23.179Z,12.67
2023-01-17T08:03:07.743Z,12.90
2023-01-17T08:05:56.333Z,13.67
2023-01-17T08:08:39.396Z,12.53
2023-01-17T08:11:22.546Z,12.87
2023-01-17T08:14:08.213Z,11.70
2023-01-17T08:16:51.300Z,11.50
2023-01-17T08:19:35.836Z,13.10
2023-01-17T08:22:19.038Z,13.33
2023-01-17T08:25:02.092Z,14.60
2023-01-17T08:27:45.294Z,9.90
2023-01-17T08:30:28.897Z,9.10
2023-01-17T08:33:12.079Z,10.83
2023-01-17T08:35:56.642Z,9.87
2023-01-17T08:38:39.819Z,10.07
2023-01-17T08:41:23.804Z,11.73
2023-01-17T08:44:07.513Z,12.37
2023-01-17T08:46:51.013Z,12.10
2023-01-17T08:49:34.148Z,11.67
2023-01-17T08:52:18.665Z,9.87
2023-01-17T08:55:04.375Z,9.13
2023-01-17T08:57:47.910Z,8.30
2023-01-17T09:00:33.959Z,9.43
2023-01-17T09:03:19.804Z,8.50
2023-01-17T09:06:04.507Z,8.13
2023-01-17T09:08:49.819Z,7.50
2023-01-17T09:11:33.226Z,7.73
2023-01-17T09:14:17.030Z,11.83
2023-01-17T09:17:02.539Z,11.97
2023-01-17T09:19:47.671Z,13.67
2023-01-17T09:22:30.789Z,13.43
2023-01-17T09:25:17.363Z,14.30
2023-01-17T09:28:00.501Z,13.87
2023-01-17T09:30:48.703Z,12.37
2023-01-17T09:33:31.902Z,10.10
2023-01-17T09:36:15.266Z,11.40
2023-01-17T09:39:01.020Z,10.97
2023-01-17T09:41:53.301Z,11.53
2023-01-17T09:44:43.235Z,8.97
2023-01-17T09:47:35.565Z,7.80
2023-01-17T09:50:29.794Z,7.83
2023-01-17T09:53:16.103Z,9.33
2023-01-17T09:56:02.289Z,8.93
2023-01-17T09:58:53.837Z,7.77
2023-01-17T10:01:44.525Z,9.17
2023-01-17T10:04:49.093Z,7.47
2023-01-17T10:07:44.976Z,7.40
2023-01-17T10:10:38.607Z,7.73
2023-01-17T10:13:35.506Z,7.07
2023-01-17T10:16:35.191Z,8.00
2023-01-17T10:19:36.245Z,7.87
2023-01-17T10:22:34.789Z,6.80
2023-01-17T10:25:33.200Z,7.60
2023-01-17T10:28:18.535Z,6.80
2023-01-17T10:31:07.520Z,5.70
2023-01-17T10:33:55.089Z,7.40
2023-01-17T10:36:43.146Z,7.10
2023-01-17T10:39:29.643Z,6.37
2023-01-17T10:42:21.443Z,6.27
2023-01-17T10:45:08.909Z,6.50
2023-01-17T10:48:01.543Z,6.73
2023-01-17T10:50:55.120Z,6.90
2023-01-17T10:53:50.928Z,6.33
2023-01-17T10:56:35.793Z,7.10
2023-01-17T10:59:28.291Z,7.00
2023-01-17T11:02:31.627Z,5.73
2023-01-17T11:05:25.437Z,7.67
2023-01-17T11:08:11.401Z,6.23
2023-01-17T11:10:56.401Z,5.87
2023-01-17T11:13:40.055Z,6.17
2023-01-17T11:16:27.536Z,7.03
2023-01-17T11:19:18.482Z,6.00
2023-01-17T11:22:05.990Z,6.70
2023-01-17T11:24:54.027Z,5.97
2023-01-17T11:27:43.520Z,7.07
2023-01-17T11:30:29.632Z,7.37
2023-01-17T11:33:50.560Z,6.37
2023-01-17T11:36:36.286Z,6.30
2023-01-17T11:39:30.725Z,6.47
2023-01-17T11:42:37.321Z,6.70
2023-01-17T11:45:25.959Z,6.90
2023-01-17T11:48:15.508Z,6.93
2023-01-17T11:51:04.522Z,8.63
2023-01-17T11:53:49.279Z,8.33
2023-01-17T11:56:34.531Z,6.20
2023-01-17T11:59:39.015Z,5.83
2023-01-17T12:02:44.500Z,7.13
2023-01-17T12:05:41.694Z,6.60
2023-01-17T12:08:42.158Z,7.20
2023-01-17T12:11:36.176Z,9.37
2023-01-17T12:14:31.754Z,6.87
2023-01-17T12:17:25.265Z,7.30
2023-01-17T12:20:22.630Z,9.30
2023-01-17T12:23:25.415Z,7.47
2023-01-17T12:26:26.641Z,6.90
2023-01-17T12:29:39.156Z,7.67
2023-01-17T12:32:40.617Z,5.90
2023-01-17T12:35:29.003Z,7.40
2023-01-17T12:38:31.310Z,7.97
2023-01-17T12:41:22.440Z,6.73
2023-01-17T12:44:06.148Z,6.97
2023-01-17T12:46:56.004Z,6.47
2023-01-17T12:49:48.223Z,6.90
2023-01-17T12:52:46.502Z,7.87
2023-01-17T12:55:38.616Z,8.00
2023-01-17T12:58:26.138Z,7.13
2023-01-17T13:01:21.065Z,8.70
2023-01-17T13:04:17.812Z,6.43
2023-01-17T13:07:14.102Z,7.67
2023-01-17T13:10:03.973Z,6.20
2023-01-17T13:12:49.905Z,6.77
2023-01-17T13:15:42.707Z,7.30
2023-01-17T13:18:29.961Z,6.03
2023-01-17T13:21:31.506Z,6.63
2023-01-17T13:24:23.954Z,7.83
2023-01-17T13:27:59.253Z,6.13
2023-01-17T13:31:19.080Z,5.83
2023-01-17T13:34:40.031Z,6.17
2023-01-17T13:37:41.464Z,6.47
2023-01-17T13:40:50.168Z,6.87
2023-01-17T13:44:06.215Z,6.00
2023-01-17T13:47:02.805Z,6.30
2023-01-17T13:49:48.589Z,6.50
2023-01-17T13:52:35.669Z,6.33
2023-01-17T13:55:47.692Z,5.93
2023-01-17T13:58:33.434Z,7.20
2023-01-17T14:01:17.074Z,6.53
2023-01-17T14:04:09.504Z,7.00
2023-01-17T14:07:05.551Z,6.53
2023-01-17T14:09:52.812Z,6.13
2023-01-17T14:12:36.678Z,7.70
2023-01-17T14:15:25.050Z,5.37
2023-01-17T14:18:34.458Z,6.37
2023-01-17T14:21:26.475Z,7.47
2023-01-17T14:24:17.828Z,7.10
2023-01-17T14:27:20.897Z,8.20
2023-01-17T14:30:04.957Z,7.27
2023-01-17T14:33:13.716Z,6.10
2023-01-17T14:35:59.971Z,9.00
2023-01-17T14:38:46.321Z,8.43
2023-01-17T14:41:30.811Z,6.60
2023-01-17T14:44:17.212Z,8.07
2023-01-17T14:47:00.464Z,7.80
2023-01-17T14:49:44.249Z,7.23
2023-01-17T14:52:27.719Z,8.20
2023-01-17T14:55:18.692Z,8.17
2023-01-17T14:58:05.325Z,7.13
2023-01-17T15:00:57.633Z,11.80
2023-01-17T15:03:49.393Z,11.03
2023-01-17T15:06:38.671Z,8.93
2023-01-17T15:09:24.232Z,10.30
2023-01-17T15:12:13.889Z,12.23
2023-01-17T15:15:01.196Z,10.83
2023-01-17T15:17:44.462Z,11.03
2023-01-17T15:20:28.403Z,10.10
2023-01-17T15:23:20.370Z,10.23
2023-01-17T15:26:05.545Z,10.00
2023-01-17T15:28:51.499Z,11.57
2023-01-17T15:31:43.603Z,10.97
2023-01-17T15:34:29.511Z,12.23
2023-01-17T15:37:25.940Z,11.57
2023-01-17T15:40:20.050Z,11.73
2023-01-17T15:43:05.530Z,11.73
2023-01-17T15:46:01.746Z,12.87
2023-01-17T15:48:45.575Z,12.07
2023-01-17T15:51:42.092Z,11.60
2023-01-17T15:54:44.921Z,11.80
2023-01-17T15:57:31.009Z,11.20
2023-01-17T16:00:26.430Z,12.93
2023-01-17T16:03:28.945Z,12.53
2023-01-17T16:06:32.416Z,14.47
2023-01-17T16:09:23.246Z,13.93
2023-01-17T16:12:08.871Z,13.60
2023-01-17T16:15:11.324Z,12.13
2023-01-17T16:17:58.829Z,11.47
2023-01-17T16:20:48.450Z,12.27
2023-01-17T16:23:31.824Z,12.37
2023-01-17T16:26:18.861Z,11.47
2023-01-17T16:29:02.382Z,11.77
2023-01-17T16:31:47.577Z,11.70
2023-01-17T16:34:39.784Z,12.17
2023-01-17T16:37:24.295Z,12.83
2023-01-17T16:40:09.116Z,11.13
2023-01-17T16:42:52.938Z,11.63
2023-01-17T16:45:41.246Z,11.37
2023-01-17T16:48:24.617Z,12.10
2023-01-17T16:51:09.197Z,11.73
2023-01-17T16:53:53.704Z,12.70
2023-01-17T16:56:36.864Z,11.20
2023-01-17T17:02:18.770Z,13.77
2023-01-17T17:05:04.380Z,14.67
2023-01-17T17:07:51.538Z,12.43
2023-01-17T17:10:36.396Z,16.10
2023-01-17T17:13:21.908Z,11.43
2023-01-17T17:16:10.938Z,12.63
2023-01-17T17:19:01.737Z,15.30
2023-01-17T17:21:44.811Z,12.40
2023-01-17T17:24:28.169Z,16.47
2023-01-17T17:27:12.885Z,11.93
2023-01-17T17:29:58.748Z,10.87
2023-01-17T17:32:41.998Z,11.07
2023-01-17T17:35:32.227Z,9.70
2023-01-17T17:38:17.628Z,11.20
2023-01-17T17:41:06.565Z,19.07
2023-01-17T17:43:52.290Z,16.90
2023-01-17T17:46:38.615Z,9.77
2023-01-17T17:49:22.725Z,10.67
2023-01-17T17:52:06.798Z,8.03
2023-01-17T17:54:50.006Z,9.17
2023-01-17T17:57:36.674Z,8.30
2023-01-17T18:00:23.519Z,7.30
2023-01-17T18:03:07.373Z,8.43
2023-01-17T18:05:50.431Z,8.50
2023-01-17T18:08:33.976Z,13.37
2023-01-17T18:11:21.317Z,12.37
2023-01-17T18:14:06.660Z,13.00
2023-01-17T18:16:54.462Z,13.80
2023-01-17T18:19:38.158Z,16.67
2023-01-17T18:22:21.281Z,14.43
2023-01-17T18:25:04.885Z,11.83
2023-01-17T18:27:48.033Z,12.40
2023-01-17T18:30:35.062Z,12.47
2023-01-17T18:33:21.375Z,11.57
2023-01-17T18:36:05.355Z,12.43
2023-01-17T18:38:52.358Z,12.70
2023-01-17T18:41:35.577Z,13.03
2023-01-17T18:44:21.812Z,12.03
2023-01-17T18:47:05.692Z,11.73
2023-01-17T18:49:53.702Z,10.47
2023-01-17T18:52:38.823Z,8.43
2023-01-17T18:55:22.964Z,9.33
2023-01-17T18:58:06.110Z,9.30
2023-01-17T19:00:50.932Z,7.93
2023-01-17T19:03:34.498Z,8.40
2023-01-17T19:06:21.526Z,7.77
2023-01-17T19:09:05.489Z,8.17
2023-01-17T19:11:53.215Z,8.27
2023-01-17T19:14:36.606Z,8.00
2023-01-17T19:17:19.788Z,8.30
2023-01-17T19:20:02.926Z,7.63
2023-01-17T19:22:49.841Z,7.60
2023-01-17T19:25:37.689Z,8.73
2023-01-17T19:28:20.793Z,8.30
2023-01-17T19:31:05.336Z,7.40
2023-01-17T19:33:51.997Z,7.60
2023-01-17T19:36:37.502Z,7.60
2023-01-17T19:39:25.919Z,6.50
2023-01-17T19:42:15.438Z,6.47
2023-01-17T19:44:58.535Z,7.17
2023-01-17T19:47:42.087Z,6.67
2023-01-17T19:50:25.105Z,7.70
2023-01-17T19:53:14.066Z,8.77
2023-01-17T19:55:58.968Z,7.50
2023-01-17T19:58:43.861Z,7.87
2023-01-17T20:01:30.350Z,7.10
2023-01-17T20:04:15.840Z,6.53
2023-01-17T20:06:59.006Z,7.50
2023-01-17T20:09:49.416Z,7.40
2023-01-17T20:12:37.348Z,7.27
2023-01-17T20:15:20.666Z,6.90
2023-01-17T20:18:03.848Z,6.77
2023-01-17T20:20:57.036Z,7.00
2023-01-17T20:23:45.676Z,6.60
2023-01-17T20:26:38.343Z,8.60
2023-01-17T20:29:25.536Z,6.40
2023-01-17T20:32:11.274Z,6.77
2023-01-17T20:34:54.684Z,7.93
2023-01-17T20:37:38.229Z,7.47
2023-01-17T20:40:23.418Z,7.77
2023-01-17T20:43:06.514Z,7.20
2023-01-17T20:45:57.455Z,7.60
2023-01-17T20:48:47.808Z,6.43
2023-01-17T20:51:31.536Z,6.90
2023-01-17T20:54:16.517Z,6.60
2023-01-17T20:57:01.413Z,6.63
2023-01-17T20:59:45.901Z,6.50
2023-01-17T21:02:30.524Z,6.70
2023-01-17T21:05:13.622Z,7.43
2023-01-17T21:07:57.219Z,6.90
2023-01-17T21:10:41.622Z,7.40
2023-01-17T21:13:24.774Z,6.53
2023-01-17T21:16:11.855Z,6.17
2023-01-17T21:18:57.449Z,6.63
2023-01-17T21:21:41.279Z,6.27
2023-01-17T21:24:24.561Z,8.10
2023-01-17T21:27:07.654Z,6.50
2023-01-17T21:29:55.387Z,6.63
2023-01-17T21:32:40.748Z,6.80
2023-01-17T21:35:29.857Z,6.87
2023-01-17T21:38:13.976Z,6.67
2023-01-17T21:40:59.217Z,6.80
2023-01-17T21:43:42.246Z,7.53
2023-01-17T21:46:26.199Z,6.33
2023-01-17T21:49:12.458Z,6.30
2023-01-17T21:52:17.386Z,6.30
2023-01-17T21:55:18.106Z,6.53
2023-01-17T21:58:19.055Z,6.00
2023-01-17T22:01:11.180Z,5.80
2023-01-17T22:04:00.388Z,5.73
2023-01-17T22:06:43.473Z,5.70
2023-01-17T22:09:27.920Z,6.70
2023-01-17T22:12:12.026Z,5.47
2023-01-17T22:14:55.404Z,6.30
2023-01-17T22:17:41.968Z,5.80
2023-01-17T22:20:25.335Z,5.80
2023-01-17T22:23:09.567Z,5.97
2023-01-17T22:25:54.018Z,5.77
2023-01-17T22:28:37.958Z,6.60
2023-01-17T22:31:25.983Z,5.67
2023-01-17T22:34:09.086Z,6.60
2023-01-17T22:36:52.105Z,5.53
2023-01-17T22:39:35.192Z,5.97
2023-01-17T22:42:20.295Z,6.00
2023-01-17T22:45:03.359Z,5.47
2023-01-17T22:47:46.462Z,6.97
2023-01-17T22:50:29.559Z,6.07
2023-01-17T22:53:12.728Z,5.80
2023-01-17T22:56:05.790Z,6.63
2023-01-17T22:58:50.764Z,5.10
2023-01-17T23:01:34.055Z,6.43
2023-01-17T23:04:17.354Z,6.27
2023-01-17T23:07:00.763Z,6.13
2023-01-17T23:09:43.939Z,7.07
2023-01-17T23:12:29.513Z,6.13
2023-01-17T23:15:32.589Z,5.90
2023-01-17T23:18:33.258Z,6.73
2023-01-17T23:21:17.581Z,6.20
2023-01-17T23:24:00.667Z,5.90
2023-01-17T23:27:03.731Z,5.93
2023-01-17T23:29:45.878Z,7.53
2023-01-17T23:32:30.396Z,5.47
2023-01-17T23:35:13.910Z,6.43
2023-01-17T23:38:15.113Z,5.20
2023-01-17T23:41:22.425Z,5.60
2023-01-17T23:44:05.536Z,5.57
2023-01-17T23:46:50.838Z,7.00
2023-01-17T23:49:35.354Z,6.83
2023-01-17T23:52:19.609Z,5.90
2023-01-17T23:55:04.720Z,6.47
2023-01-17T23:57:50.357Z,6.23
